createdAt,value
2019-02-02T00:04:12.534Z,44.55
2019-02-02T00:09:21.554Z,51.69
2019-02-02T00:14:30.474Z,43.91
2019-02-02T00:19:39.397Z,55.34
2019-02-02T00:24:48.339Z,44.13
2019-02-02T00:29:57.345Z,47.92
2019-02-02T00:35:06.286Z,45.84
2019-02-02T00:40:15.294Z,44.84
2019-02-02T00:45:24.211Z,47.06
2019-02-02T00:50:33.267Z,51.52
2019-02-02T00:55:42.234Z,53.68
2019-02-02T01:00:51.259Z,48.27
2019-02-02T01:06:00.202Z,48.31
2019-02-02T01:11:09.255Z,47.27
2019-02-02T01:16:18.196Z,51.58
2019-02-02T01:21:27.218Z,53.28
2019-02-02T01:26:36.151Z,53.21
2019-02-02T01:31:45.173Z,49.26
2019-02-02T01:36:54.104Z,51.97
2019-02-02T01:42:03.112Z,48.87
2019-02-02T01:47:12.078Z,51.92
2019-02-02T01:52:21.058Z,49.73
2019-02-02T01:57:30.191Z,53.69
2019-02-02T02:02:39.126Z,50.18
2019-02-02T02:07:48.151Z,49.25
2019-02-02T02:12:57.067Z,49.44
2019-02-02T02:18:06.074Z,49.66
2019-02-02T02:23:15.040Z,51.90
2019-02-02T02:28:28.165Z,50.07
2019-02-02T02:33:32.504Z,50.18
2019-02-02T02:38:41.520Z,51.31
2019-02-02T02:43:50.569Z,54.28
2019-02-02T02:48:59.421Z,59.46
2019-02-02T02:54:08.363Z,58.53
2019-02-02T02:59:17.351Z,57.87
2019-02-02T03:04:26.379Z,60.50
2019-02-02T03:09:35.329Z,59.18
2019-02-02T03:14:44.255Z,60.00
2019-02-02T03:19:53.184Z,53.97
2019-02-02T03:25:02.158Z,58.60
2019-02-02T03:30:11.087Z,54.45
2019-02-02T03:35:20.032Z,62.09
2019-02-02T03:40:28.947Z,60.50
2019-02-02T03:45:40.524Z,51.61
2019-02-02T03:50:46.422Z,55.76
2019-02-02T03:55:55.390Z,55.39
2019-02-02T04:01:04.358Z,55.21
2019-02-02T04:06:13.305Z,57.28
2019-02-02T04:11:22.282Z,56.28
2019-02-02T04:16:31.211Z,59.71
2019-02-02T04:21:40.205Z,58.07
2019-02-02T04:26:49.124Z,60.72
2019-02-02T04:31:58.078Z,65.05
2019-02-02T04:37:07.006Z,68.12
2019-02-02T04:42:15.974Z,72.78
2019-02-02T04:47:24.886Z,72.78
2019-02-02T04:52:33.900Z,74.34
2019-02-02T04:57:42.834Z,71.33
2019-02-02T05:02:51.831Z,67.93
2019-02-02T05:08:00.746Z,63.61
2019-02-02T05:13:09.778Z,65.11
2019-02-02T05:18:18.750Z,65.42
2019-02-02T05:23:27.754Z,63.04
2019-02-02T05:28:36.674Z,64.68
2019-02-02T05:33:45.642Z,66.12
2019-02-02T05:38:54.602Z,63.91
2019-02-02T05:44:03.602Z,64.06
2019-02-02T05:49:12.526Z,67.70
2019-02-02T05:54:21.459Z,68.30
2019-02-02T05:59:30.472Z,66.31
2019-02-02T06:04:39.390Z,75.46
2019-02-02T06:09:48.414Z,77.59
2019-02-02T06:14:57.326Z,85.54
2019-02-02T06:20:06.249Z,87.92
2019-02-02T06:25:15.191Z,78.93
2019-02-02T06:30:24.247Z,75.11
2019-02-02T06:35:33.178Z,76.44
2019-02-02T06:40:42.105Z,80.55
2019-02-02T06:45:51.038Z,85.70
2019-02-02T06:51:00.014Z,93.21
2019-02-02T06:56:08.946Z,100.01
2019-02-02T07:01:17.962Z,86.22
2019-02-02T07:06:26.893Z,91.74
2019-02-02T07:11:35.902Z,85.74
2019-02-02T07:16:44.834Z,83.34
2019-02-02T07:21:53.848Z,82.47
2019-02-02T07:27:02.762Z,92.62
2019-02-02T07:32:11.757Z,92.96
2019-02-02T07:37:20.710Z,94.38
2019-02-02T07:42:29.710Z,100.73
2019-02-02T07:47:38.671Z,90.36
2019-02-02T07:52:47.650Z,97.12
2019-02-02T07:57:56.574Z,92.03
2019-02-02T08:03:05.562Z,94.32
2019-02-02T08:08:17.040Z,99.36
2019-02-02T08:13:23.002Z,96.33
2019-02-02T08:18:31.926Z,103.44
2019-02-02T08:23:40.887Z,98.33
2019-02-02T08:28:49.881Z,95.45
2019-02-02T08:33:58.798Z,104.65
2019-02-02T08:39:07.761Z,101.12
2019-02-02T08:44:16.719Z,103.16
2019-02-02T08:49:25.690Z,100.79
2019-02-02T08:54:34.620Z,105.48
2019-02-02T08:59:43.586Z,106.46
2019-02-02T09:04:52.534Z,116.45
2019-02-02T09:10:01.532Z,107.92
2019-02-02T09:15:10.455Z,116.85
2019-02-02T09:20:19.511Z,110.25
2019-02-02T09:25:28.465Z,107.02
2019-02-02T09:30:37.434Z,117.97
2019-02-02T09:35:46.387Z,112.81
2019-02-02T09:40:55.415Z,118.67
2019-02-02T09:46:04.778Z,114.28
2019-02-02T09:51:12.875Z,104.68
2019-02-02T09:56:21.766Z,114.18
2019-02-02T10:01:30.834Z,109.63
2019-02-02T10:06:39.762Z,109.81
2019-02-02T10:11:48.800Z,107.64
2019-02-02T10:16:57.734Z,109.32
2019-02-02T10:22:06.726Z,96.39
2019-02-02T10:27:15.669Z,97.65
2019-02-02T10:32:24.770Z,100.23
2019-02-02T10:37:33.606Z,105.59
2019-02-02T10:42:42.602Z,103.67
2019-02-02T10:47:51.523Z,90.82
2019-02-02T10:53:00.452Z,89.26
2019-02-02T10:58:09.375Z,92.28
2019-02-02T11:03:18.498Z,97.64
2019-02-02T11:08:27.560Z,92.85
2019-02-02T11:13:36.381Z,93.54
2019-02-02T11:18:45.299Z,95.72
2019-02-02T11:23:54.314Z,66.67
2019-02-02T11:29:03.375Z,82.37
2019-02-02T11:34:12.276Z,87.37
2019-02-02T11:39:21.230Z,79.66
2019-02-02T11:44:30.243Z,79.73
2019-02-02T11:49:39.163Z,82.03
2019-02-02T11:54:48.131Z,86.69
2019-02-02T11:59:57.062Z,80.48
2019-02-02T12:05:06.071Z,69.85
2019-02-02T12:10:14.990Z,75.74
2019-02-02T12:15:23.951Z,71.91
2019-02-02T12:20:33.492Z,70.74
2019-02-02T12:25:41.421Z,73.82
2019-02-02T12:30:50.350Z,76.06
2019-02-02T12:35:59.380Z,72.04
2019-02-02T12:41:08.327Z,76.70
2019-02-02T12:46:17.282Z,66.42
2019-02-02T12:51:26.562Z,71.11
2019-02-02T12:56:35.608Z,64.64
2019-02-02T13:01:44.535Z,69.70
2019-02-02T13:06:53.494Z,67.62
2019-02-02T13:12:02.422Z,68.94
2019-02-02T13:17:11.394Z,55.66
2019-02-02T13:22:20.340Z,65.80
2019-02-02T13:27:29.342Z,65.03
2019-02-02T13:32:49.132Z,70.13
2019-02-02T13:37:46.778Z,67.21
2019-02-02T13:42:55.707Z,70.82
2019-02-02T13:48:04.649Z,73.55
2019-02-02T13:53:13.566Z,64.32
2019-02-02T13:58:22.574Z,69.38
2019-02-02T14:03:31.507Z,71.68
2019-02-02T14:08:40.498Z,68.66
2019-02-02T14:13:49.466Z,70.16
2019-02-02T14:18:58.420Z,68.16
2019-02-02T14:24:07.614Z,71.91
2019-02-02T14:29:16.986Z,68.18
2019-02-02T14:34:26.135Z,66.21
2019-02-02T14:39:35.235Z,64.29
2019-02-02T14:44:44.306Z,73.97
2019-02-02T14:49:53.472Z,79.52
2019-02-02T14:55:02.379Z,85.65
2019-02-02T15:00:11.395Z,75.88
2019-02-02T15:05:20.319Z,79.17
2019-02-02T15:10:29.286Z,82.73
2019-02-02T15:15:38.223Z,80.47
2019-02-02T15:20:47.193Z,77.89
2019-02-02T15:25:56.120Z,78.67
2019-02-02T15:31:05.151Z,78.25
2019-02-02T15:36:14.058Z,82.85
2019-02-02T15:41:23.028Z,84.23
2019-02-02T15:46:31.974Z,86.11
2019-02-02T15:51:40.966Z,84.56
2019-02-02T15:56:49.893Z,87.23
2019-02-02T16:01:58.855Z,83.71
2019-02-02T16:07:07.807Z,76.58
2019-02-02T16:12:16.786Z,82.18
2019-02-02T16:17:25.719Z,90.07
2019-02-02T16:22:34.724Z,86.79
2019-02-02T16:27:43.653Z,81.99
2019-02-02T16:32:52.594Z,79.25
2019-02-02T16:38:01.549Z,83.11
2019-02-02T16:43:10.590Z,87.62
2019-02-02T16:48:19.531Z,77.11
2019-02-02T16:53:28.574Z,87.16
2019-02-02T16:58:37.756Z,89.92
2019-02-02T17:03:46.510Z,86.51
2019-02-02T17:08:55.432Z,83.17
2019-02-02T17:14:04.427Z,83.89
2019-02-02T17:19:13.525Z,85.35
2019-02-02T17:24:22.580Z,82.82
2019-02-02T17:29:31.530Z,84.63
2019-02-02T17:34:40.889Z,87.87
2019-02-02T17:39:50.046Z,85.10
2019-02-02T17:44:59.119Z,85.79
2019-02-02T17:50:08.046Z,90.92
2019-02-02T17:55:17.107Z,82.33
2019-02-02T18:00:26.066Z,77.18
2019-02-02T18:05:35.026Z,74.73
2019-02-02T18:10:43.984Z,77.56
2019-02-02T18:15:52.978Z,75.97
2019-02-02T18:21:01.931Z,83.92
2019-02-02T18:26:10.926Z,80.52
2019-02-02T18:31:19.875Z,93.06
2019-02-02T18:36:28.906Z,95.57
2019-02-02T18:41:37.843Z,93.53
2019-02-02T18:46:46.872Z,90.78
2019-02-02T18:51:55.794Z,94.50
2019-02-02T18:57:04.795Z,101.52
2019-02-02T19:02:13.698Z,95.14
2019-02-02T19:07:22.754Z,103.70
2019-02-02T19:12:31.720Z,99.55
2019-02-02T19:17:40.650Z,94.13
2019-02-02T19:22:49.613Z,107.50
2019-02-02T19:27:58.667Z,103.36
2019-02-02T19:33:07.626Z,99.43
2019-02-02T19:38:16.622Z,110.15
2019-02-02T19:43:25.541Z,108.80
2019-02-02T19:48:34.547Z,102.22
2019-02-02T19:53:43.500Z,103.25
2019-02-02T19:58:52.435Z,114.09
2019-02-02T20:04:01.410Z,116.22
2019-02-02T20:09:10.350Z,119.55
2019-02-02T20:14:19.974Z,122.13
2019-02-02T20:19:28.907Z,120.44
2019-02-02T20:24:37.859Z,104.02
2019-02-02T20:29:46.809Z,104.69
2019-02-02T20:34:55.734Z,112.79
2019-02-02T20:40:04.721Z,120.21
2019-02-02T20:45:13.618Z,121.44
2019-02-02T20:50:22.595Z,116.28
2019-02-02T20:55:31.514Z,123.66
2019-02-02T21:00:40.480Z,112.88
2019-02-02T21:05:52.581Z,116.56
2019-02-02T21:10:57.910Z,116.04
2019-02-02T21:16:06.882Z,113.06
2019-02-02T21:21:16.094Z,128.58
2019-02-02T21:26:25.043Z,122.43
2019-02-02T21:31:34.018Z,127.58
2019-02-02T21:36:42.950Z,131.71
2019-02-02T21:41:52.022Z,129.86
2019-02-02T21:47:00.967Z,148.93
2019-02-02T21:52:09.938Z,160.37
2019-02-02T21:57:18.898Z,164.58
2019-02-02T22:02:27.909Z,161.18
2019-02-02T22:07:36.822Z,156.53
2019-02-02T22:12:45.911Z,153.39
2019-02-02T22:17:54.219Z,151.05
2019-02-02T22:23:03.178Z,162.49
2019-02-02T22:28:12.166Z,163.74
2019-02-02T22:33:21.120Z,161.86
2019-02-02T22:38:30.078Z,160.03
2019-02-02T22:43:39.034Z,179.98
2019-02-02T22:48:48.238Z,181.24
2019-02-02T22:53:57.194Z,150.95
2019-02-02T22:59:06.177Z,149.24
2019-02-02T23:04:15.134Z,151.11
2019-02-02T23:09:24.095Z,144.14
2019-02-02T23:14:33.002Z,123.23
2019-02-02T23:19:41.978Z,119.92
2019-02-02T23:24:50.902Z,126.57
2019-02-02T23:29:59.851Z,197.69
2019-02-02T23:35:08.811Z,187.33
2019-02-02T23:40:17.786Z,186.06
2019-02-02T23:45:26.794Z,182.73
2019-02-02T23:50:35.756Z,178.70
2019-02-02T23:55:44.710Z,170.70
